createdAt,value
2019-04-21T00:00:26.004Z,48.23
2019-04-21T00:01:05.469Z,47.93
2019-04-21T00:01:41.253Z,48.08
2019-04-21T00:02:18.622Z,47.50
2019-04-21T00:02:48.588Z,47.45
2019-04-21T00:03:27.522Z,47.80
2019-04-21T00:04:09.583Z,47.03
2019-04-21T00:04:43.319Z,47.93
2019-04-21T00:05:38.782Z,47.88
2019-04-21T00:06:07.168Z,47.98
2019-04-21T00:06:36.935Z,48.83
2019-04-21T00:07:16.004Z,47.95
2019-04-21T00:07:49.425Z,47.95
2019-04-21T00:08:33.515Z,48.28
2019-04-21T00:09:04.251Z,48.28
2019-04-21T00:10:13.642Z,48.02
2019-04-21T00:10:40.585Z,48.85
2019-04-21T00:11:55.681Z,48.17
2019-04-21T00:12:26.887Z,48.90
2019-04-21T00:13:00.405Z,48.78
2019-04-21T00:13:32.847Z,49.13
2019-04-21T00:14:13.284Z,48.80
2019-04-21T00:14:43.841Z,48.85
2019-04-21T00:15:18.108Z,49.10
2019-04-21T00:15:48.807Z,49.65
2019-04-21T00:16:29.100Z,48.25
2019-04-21T00:16:58.008Z,48.40
2019-04-21T00:17:28.708Z,49.55
2019-04-21T00:18:41.816Z,48.52
2019-04-21T00:19:18.154Z,49.15
2019-04-21T00:19:55.438Z,48.60
2019-04-21T00:20:37.584Z,49.18
2019-04-21T00:21:11.056Z,49.27
2019-04-21T00:21:44.886Z,48.48
2019-04-21T00:22:23.773Z,48.25
2019-04-21T00:23:09.182Z,48.08
2019-04-21T00:23:42.464Z,48.80
2019-04-21T00:24:22.714Z,48.83
2019-04-21T00:24:56.925Z,49.35
2019-04-21T00:25:36.423Z,49.05
2019-04-21T00:26:03.066Z,48.92
2019-04-21T00:26:49.498Z,49.75
2019-04-21T00:27:21.202Z,48.85
2019-04-21T00:28:02.954Z,47.98
2019-04-21T00:28:42.846Z,49.05
2019-04-21T00:29:19.262Z,49.88
2019-04-21T00:29:46.893Z,50.10
2019-04-21T00:30:24.106Z,49.15
2019-04-21T00:30:59.274Z,49.05
2019-04-21T00:31:28.511Z,50.10
2019-04-21T00:32:01.690Z,49.93
2019-04-21T00:32:35.592Z,49.95
2019-04-21T00:33:06.740Z,49.98
2019-04-21T00:33:37.085Z,49.40
2019-04-21T00:34:09.520Z,49.90
2019-04-21T00:34:51.204Z,49.50
2019-04-21T00:35:22.611Z,49.53
2019-04-21T00:36:00.765Z,50.33
2019-04-21T00:36:41.756Z,49.85
2019-04-21T00:37:15.792Z,49.60
2019-04-21T00:38:02.274Z,49.93
2019-04-21T00:38:32.354Z,50.50
2019-04-21T00:39:26.584Z,50.88
2019-04-21T00:40:25.695Z,49.80
2019-04-21T00:41:00.361Z,49.33
2019-04-21T00:41:32.146Z,50.45
2019-04-21T00:42:05.509Z,50.10
2019-04-21T00:42:38.685Z,50.63
2019-04-21T00:43:14.799Z,50.73
2019-04-21T00:43:44.703Z,50.67
2019-04-21T00:44:18.072Z,50.73
2019-04-21T00:44:58.690Z,50.43
2019-04-21T00:45:31.476Z,51.63
2019-04-21T00:46:02.142Z,50.63
2019-04-21T00:46:42.958Z,51.18
2019-04-21T00:47:25.235Z,51.30
2019-04-21T00:48:00.629Z,50.75
2019-04-21T00:48:37.764Z,51.35
2019-04-21T00:49:02.110Z,51.13
2019-04-21T00:49:35.776Z,51.02
2019-04-21T00:50:20.596Z,51.33
2019-04-21T00:51:15.029Z,51.68
2019-04-21T00:52:40.189Z,51.42
2019-04-21T00:53:22.566Z,51.58
2019-04-21T00:53:51.180Z,50.92
2019-04-21T00:54:29.581Z,51.02
2019-04-21T00:55:07.692Z,51.28
2019-04-21T00:55:59.650Z,52.33
2019-04-21T00:56:27.878Z,51.77
2019-04-21T00:57:11.590Z,52.90
2019-04-21T00:57:45.317Z,52.38
2019-04-21T00:58:26.979Z,53.08
2019-04-21T00:58:56.023Z,52.23
2019-04-21T00:59:28.199Z,52.75
2019-04-21T01:00:00.820Z,52.13
2019-04-21T01:00:43.063Z,51.92
2019-04-21T01:01:15.172Z,52.03
2019-04-21T01:01:48.710Z,52.58
2019-04-21T01:02:26.119Z,52.25
2019-04-21T01:03:06.703Z,53.55
2019-04-21T01:03:43.469Z,53.17
2019-04-21T01:04:09.985Z,54.10
2019-04-21T01:04:49.591Z,53.02
2019-04-21T01:05:22.454Z,53.80
2019-04-21T01:05:56.170Z,53.08
2019-04-21T01:06:28.927Z,53.83
2019-04-21T01:07:07.198Z,53.80
2019-04-21T01:07:42.304Z,53.85
2019-04-21T01:08:13.227Z,54.10
2019-04-21T01:08:47.322Z,53.30
2019-04-21T01:09:29.125Z,54.33
2019-04-21T01:09:58.912Z,53.05
2019-04-21T01:10:33.482Z,53.30
2019-04-21T01:11:17.941Z,54.90
2019-04-21T01:11:57.797Z,53.73
2019-04-21T01:12:28.164Z,54.80
2019-04-21T01:13:02.617Z,55.28
2019-04-21T01:13:43.949Z,55.63
2019-04-21T01:14:11.771Z,55.03
2019-04-21T01:14:50.176Z,55.40
2019-04-21T01:16:02.107Z,55.12
2019-04-21T01:16:33.181Z,55.25
2019-04-21T01:17:14.648Z,55.15
2019-04-21T01:17:40.527Z,57.05
2019-04-21T01:18:16.478Z,55.67
2019-04-21T01:18:49.349Z,56.60
2019-04-21T01:19:25.119Z,57.03
2019-04-21T01:19:57.245Z,57.05
2019-04-21T01:20:17.899Z,56.88
2019-04-21T01:20:51.304Z,57.55
2019-04-21T01:21:24.347Z,58.45
2019-04-21T01:21:58.184Z,57.50
2019-04-21T01:22:31.469Z,57.67
2019-04-21T01:23:04.667Z,59.83
2019-04-21T01:23:38.129Z,57.50
2019-04-21T01:24:19.702Z,59.55
2019-04-21T01:24:56.996Z,58.85
2019-04-21T01:25:31.290Z,59.33
2019-04-21T01:26:12.176Z,58.95
2019-04-21T01:26:44.841Z,59.83
2019-04-21T01:27:21.666Z,58.90
2019-04-21T01:27:59.343Z,58.75
2019-04-21T01:28:36.294Z,59.33
2019-04-21T01:29:14.458Z,59.40
2019-04-21T01:29:46.027Z,60.25
2019-04-21T01:30:22.325Z,59.10
2019-04-21T01:31:01.069Z,59.77
2019-04-21T01:31:30.571Z,58.98
2019-04-21T01:32:19.057Z,59.90
2019-04-21T01:32:49.760Z,59.03
2019-04-21T01:33:24.835Z,59.98
2019-04-21T01:33:59.100Z,60.65
2019-04-21T01:34:34.549Z,59.93
2019-04-21T01:35:02.733Z,59.55
2019-04-21T01:35:40.196Z,60.35
2019-04-21T01:36:14.610Z,59.93
2019-04-21T01:36:45.807Z,60.45
2019-04-21T01:37:38.514Z,59.90
2019-04-21T01:38:01.903Z,60.67
2019-04-21T01:38:40.153Z,60.98
2019-04-21T01:39:16.228Z,60.83
2019-04-21T01:39:58.512Z,59.80
2019-04-21T01:40:32.058Z,61.02
2019-04-21T01:41:02.241Z,60.03
2019-04-21T01:41:37.352Z,60.55
2019-04-21T01:42:09.408Z,59.95
2019-04-21T01:42:46.548Z,61.10
2019-04-21T01:43:15.932Z,61.02
2019-04-21T01:43:50.310Z,60.83
2019-04-21T01:44:39.105Z,61.02
2019-04-21T01:45:08.060Z,60.70
2019-04-21T01:45:37.277Z,61.00
2019-04-21T01:46:11.298Z,62.00
2019-04-21T01:46:45.799Z,61.37
2019-04-21T01:47:16.007Z,62.30
2019-04-21T01:47:59.696Z,61.13
2019-04-21T01:48:24.722Z,61.53
2019-04-21T01:49:01.500Z,61.77
2019-04-21T01:49:34.470Z,61.10
2019-04-21T01:50:06.963Z,61.75
2019-04-21T01:50:51.056Z,63.00
2019-04-21T01:51:22.491Z,61.92
2019-04-21T01:52:17.597Z,62.25
2019-04-21T01:52:48.600Z,62.10
2019-04-21T01:53:24.364Z,62.55
2019-04-21T01:54:12.475Z,62.43
2019-04-21T01:55:06.432Z,62.65
2019-04-21T01:56:21.734Z,62.40
2019-04-21T01:57:10.391Z,62.62
2019-04-21T01:58:14.325Z,62.98
2019-04-21T01:58:44.001Z,63.35
2019-04-21T01:59:26.984Z,64.60
2019-04-21T01:59:59.791Z,63.73
2019-04-21T02:00:45.588Z,63.75
2019-04-21T02:01:24.604Z,64.50
2019-04-21T02:02:00.467Z,63.70
2019-04-21T02:02:40.385Z,64.47
2019-04-21T02:03:28.588Z,64.25
2019-04-21T02:03:56.999Z,65.17
2019-04-21T02:04:23.985Z,64.27
2019-04-21T02:05:01.216Z,65.03
2019-04-21T02:05:37.973Z,65.15
2019-04-21T02:06:11.135Z,63.50
2019-04-21T02:06:41.314Z,64.67
2019-04-21T02:07:14.867Z,65.55
2019-04-21T02:07:49.435Z,65.95
2019-04-21T02:08:21.490Z,65.08
2019-04-21T02:09:02.189Z,65.37
2019-04-21T02:09:38.162Z,65.60
2019-04-21T02:10:17.782Z,66.67
2019-04-21T02:10:58.771Z,66.22
2019-04-21T02:11:25.483Z,65.95
2019-04-21T02:12:06.041Z,66.10
2019-04-21T02:12:36.081Z,66.05
2019-04-21T02:13:03.644Z,67.12
2019-04-21T02:13:50.191Z,66.67
2019-04-21T02:14:29.874Z,67.00
2019-04-21T02:15:03.300Z,68.28
2019-04-21T02:15:29.744Z,67.55
2019-04-21T02:16:08.670Z,67.17
2019-04-21T02:16:43.354Z,67.92
2019-04-21T02:17:16.261Z,67.35
2019-04-21T02:17:53.622Z,67.35
2019-04-21T02:18:27.592Z,66.65
2019-04-21T02:18:59.142Z,68.35
2019-04-21T02:19:31.521Z,68.15
2019-04-21T02:20:09.476Z,68.15
2019-04-21T02:20:38.759Z,68.57
2019-04-21T02:21:17.809Z,67.20
2019-04-21T02:21:52.008Z,68.45
2019-04-21T02:22:45.921Z,68.47
2019-04-21T02:23:57.455Z,71.05
2019-04-21T02:24:31.643Z,70.08
2019-04-21T02:25:02.954Z,69.03
2019-04-21T02:25:55.218Z,70.22
2019-04-21T02:26:10.138Z,71.10
2019-04-21T02:26:49.432Z,71.05
2019-04-21T02:27:20.306Z,70.87
2019-04-21T02:27:57.588Z,70.53
2019-04-21T02:28:38.456Z,73.28
2019-04-21T02:29:07.078Z,72.27
2019-04-21T02:29:45.237Z,73.28
2019-04-21T02:30:27.564Z,73.15
2019-04-21T02:31:05.947Z,73.33
2019-04-21T02:31:36.215Z,73.72
2019-04-21T02:32:53.824Z,75.05
2019-04-21T02:33:27.890Z,73.70
2019-04-21T02:34:04.490Z,74.85
2019-04-21T02:34:32.195Z,73.60
2019-04-21T02:35:14.249Z,73.52
2019-04-21T02:36:02.242Z,74.60
2019-04-21T02:37:36.986Z,75.67
2019-04-21T02:38:00.815Z,76.02
2019-04-21T02:38:40.256Z,75.90
2019-04-21T02:39:15.917Z,77.10
2019-04-21T02:39:49.105Z,76.00
2019-04-21T02:40:22.313Z,78.10
2019-04-21T02:41:30.792Z,77.32
2019-04-21T02:42:05.676Z,76.45
2019-04-21T02:42:46.409Z,76.15
2019-04-21T02:43:18.609Z,76.97
2019-04-21T02:43:56.057Z,75.50
2019-04-21T02:44:44.731Z,75.47
2019-04-21T02:44:59.904Z,74.07
2019-04-21T02:46:19.611Z,75.22
2019-04-21T02:47:27.325Z,74.37
2019-04-21T02:49:57.220Z,73.02
2019-04-21T02:50:22.345Z,74.55
2019-04-21T02:50:47.241Z,73.07
2019-04-21T02:51:27.360Z,71.97
2019-04-21T02:52:09.168Z,73.30
2019-04-21T02:54:53.695Z,71.90
2019-04-21T02:55:28.784Z,73.92
2019-04-21T02:56:11.145Z,72.12
2019-04-21T02:56:48.660Z,72.65
2019-04-21T02:57:18.598Z,73.90
2019-04-21T02:58:04.362Z,72.40
2019-04-21T02:58:47.299Z,72.62
2019-04-21T02:59:15.207Z,71.67
2019-04-21T03:00:06.881Z,72.27
2019-04-21T03:01:13.528Z,73.20
2019-04-21T03:03:13.360Z,73.62
2019-04-21T03:05:28.809Z,74.35
2019-04-21T03:06:27.036Z,74.37
2019-04-21T03:07:34.438Z,75.10
2019-04-21T03:08:22.946Z,75.10
2019-04-21T03:09:25.712Z,76.62
2019-04-21T03:11:08.941Z,74.40
2019-04-21T03:11:53.457Z,76.22
2019-04-21T03:12:56.959Z,76.02
2019-04-21T03:14:33.297Z,77.15
2019-04-21T03:14:46.161Z,76.40
2019-04-21T03:15:23.579Z,76.92
2019-04-21T03:16:57.733Z,77.62
2019-04-21T03:17:45.226Z,78.75
2019-04-21T03:20:12.484Z,79.22
2019-04-21T03:20:35.811Z,80.72
2019-04-21T03:21:13.355Z,79.17
2019-04-21T03:21:38.268Z,79.60
2019-04-21T03:22:22.582Z,79.75
2019-04-21T03:22:57.857Z,77.47
2019-04-21T03:23:38.165Z,78.85
2019-04-21T03:23:59.711Z,80.77
2019-04-21T03:25:04.250Z,82.25
2019-04-21T03:25:30.781Z,81.87
2019-04-21T03:26:03.338Z,81.32
2019-04-21T03:26:36.213Z,82.05
2019-04-21T03:27:40.144Z,82.33
2019-04-21T03:28:35.610Z,81.40
2019-04-21T03:29:20.325Z,80.53
2019-04-21T03:29:54.737Z,81.78
2019-04-21T03:30:52.909Z,81.95
2019-04-21T03:31:19.699Z,82.20
2019-04-21T03:33:59.525Z,81.85
2019-04-21T03:34:27.617Z,83.05
2019-04-21T03:39:13.778Z,84.05
2019-04-21T03:40:52.810Z,84.62
2019-04-21T03:41:30.565Z,84.35
2019-04-21T03:42:19.602Z,84.05
2019-04-21T03:42:38.968Z,84.28
2019-04-21T03:43:12.215Z,84.85
2019-04-21T03:43:54.706Z,86.82
2019-04-21T03:44:22.996Z,85.47
2019-04-21T03:45:39.153Z,85.60
2019-04-21T03:46:18.302Z,86.75
2019-04-21T03:46:47.227Z,86.57
2019-04-21T03:48:01.362Z,85.32
2019-04-21T03:49:19.265Z,85.45
2019-04-21T03:49:50.187Z,88.05
2019-04-21T03:50:20.437Z,87.67
2019-04-21T03:50:47.198Z,87.67
2019-04-21T03:51:26.792Z,85.77
2019-04-21T03:52:19.615Z,89.70
2019-04-21T03:52:45.546Z,87.30
2019-04-21T03:53:18.566Z,87.45
2019-04-21T03:53:46.218Z,88.78
2019-04-21T03:54:30.840Z,88.37
2019-04-21T03:56:59.300Z,89.65
2019-04-21T03:57:39.284Z,90.15
2019-04-21T03:58:50.515Z,91.32
2019-04-21T03:59:03.820Z,90.83
2019-04-21T03:59:48.888Z,91.35
2019-04-21T04:00:40.080Z,91.08
2019-04-21T04:01:13.810Z,90.55
2019-04-21T04:01:57.586Z,90.75
2019-04-21T04:03:04.314Z,91.32
2019-04-21T04:03:54.724Z,90.28
2019-04-21T04:04:31.903Z,91.90
2019-04-21T04:05:11.041Z,93.22
2019-04-21T04:07:06.000Z,92.17
2019-04-21T04:07:31.192Z,91.97
2019-04-21T04:08:31.478Z,92.88
2019-04-21T04:09:44.416Z,93.62
2019-04-21T04:10:11.707Z,93.70
2019-04-21T04:11:58.721Z,92.62
2019-04-21T04:12:36.539Z,93.47
2019-04-21T04:14:26.889Z,94.90
2019-04-21T04:14:57.657Z,94.85
2019-04-21T04:15:38.667Z,95.47
2019-04-21T04:16:13.821Z,94.65
2019-04-21T04:16:47.462Z,96.30
2019-04-21T04:17:18.621Z,97.67
2019-04-21T04:17:46.763Z,95.92
2019-04-21T04:18:39.246Z,94.25
2019-04-21T04:18:57.852Z,96.22
2019-04-21T04:19:39.993Z,94.25
2019-04-21T04:20:11.826Z,95.87
2019-04-21T04:20:54.963Z,96.15
2019-04-21T04:21:28.719Z,95.72
2019-04-21T04:22:04.385Z,96.50
2019-04-21T04:23:07.847Z,97.45
2019-04-21T04:23:52.150Z,97.67
2019-04-21T04:24:22.304Z,96.17
2019-04-21T04:25:01.924Z,96.23
2019-04-21T04:26:09.293Z,97.25
2019-04-21T04:26:43.376Z,97.47
2019-04-21T04:27:35.358Z,97.65
2019-04-21T04:28:00.204Z,98.00
2019-04-21T04:28:36.364Z,96.87
2019-04-21T04:29:35.493Z,97.67
2019-04-21T04:30:12.491Z,98.47
2019-04-21T04:30:45.378Z,97.67
2019-04-21T04:31:50.537Z,98.12
2019-04-21T04:33:10.314Z,98.17
2019-04-21T04:33:48.320Z,99.85
2019-04-21T04:34:24.859Z,98.85
2019-04-21T04:35:34.120Z,98.33
2019-04-21T04:36:24.355Z,98.78
2019-04-21T04:38:07.167Z,98.33
2019-04-21T04:39:42.772Z,99.37
2019-04-21T04:40:24.291Z,100.02
2019-04-21T04:41:06.116Z,100.05
2019-04-21T04:42:26.226Z,99.20
2019-04-21T04:43:23.355Z,100.90
2019-04-21T04:43:54.485Z,99.17
2019-04-21T04:44:39.071Z,99.10
2019-04-21T04:46:16.038Z,99.50
2019-04-21T04:47:32.717Z,98.27
2019-04-21T04:47:59.057Z,98.90
2019-04-21T04:48:27.991Z,99.52
2019-04-21T04:49:11.500Z,98.95
2019-04-21T04:49:49.053Z,99.07
2019-04-21T04:51:03.808Z,101.07
2019-04-21T04:51:33.368Z,99.87
2019-04-21T04:53:12.118Z,98.87
2019-04-21T04:53:47.476Z,99.62
2019-04-21T04:54:37.140Z,98.42
2019-04-21T04:55:01.796Z,100.30
2019-04-21T04:55:33.224Z,99.13
2019-04-21T04:56:10.803Z,99.10
2019-04-21T04:56:47.641Z,99.80
2019-04-21T04:57:21.697Z,98.27
2019-04-21T04:58:04.686Z,98.35
2019-04-21T04:58:29.726Z,99.40
2019-04-21T05:00:18.203Z,97.55
2019-04-21T05:00:52.120Z,97.60
2019-04-21T05:01:32.647Z,97.05
2019-04-21T05:02:15.079Z,97.70
2019-04-21T05:02:37.669Z,98.33
2019-04-21T05:03:01.462Z,99.00
2019-04-21T05:03:48.993Z,96.47
2019-04-21T05:04:20.903Z,96.47
2019-04-21T05:04:56.707Z,95.90
2019-04-21T05:05:26.893Z,97.47
2019-04-21T05:07:42.898Z,97.95
2019-04-21T05:08:28.853Z,97.62
2019-04-21T05:09:27.044Z,95.83
2019-04-21T05:10:49.088Z,96.63
2019-04-21T05:11:20.755Z,97.72
2019-04-21T05:12:19.420Z,93.60
2019-04-21T05:12:51.113Z,95.72
2019-04-21T05:13:35.151Z,93.75
2019-04-21T05:14:13.348Z,95.35
2019-04-21T05:14:39.709Z,93.27
2019-04-21T05:15:14.011Z,93.03
2019-04-21T05:15:53.673Z,91.87
2019-04-21T05:16:38.454Z,93.58
2019-04-21T05:17:37.886Z,93.75
2019-04-21T05:18:17.853Z,93.20
2019-04-21T05:18:56.521Z,92.85
2019-04-21T05:20:26.068Z,91.95
2019-04-21T05:21:19.015Z,93.97
2019-04-21T05:22:17.232Z,91.97
2019-04-21T05:22:42.289Z,92.57
2019-04-21T05:23:19.368Z,93.25
2019-04-21T05:23:51.208Z,91.67
2019-04-21T05:24:24.015Z,92.60
2019-04-21T05:25:02.456Z,92.20
2019-04-21T05:25:33.873Z,91.20
2019-04-21T05:26:03.252Z,91.87
2019-04-21T05:26:44.744Z,92.08
2019-04-21T05:27:38.363Z,91.20
2019-04-21T05:28:09.013Z,89.13
2019-04-21T05:28:44.687Z,90.38
2019-04-21T05:29:30.927Z,90.57
2019-04-21T05:30:17.224Z,89.62
2019-04-21T05:30:58.437Z,89.62
2019-04-21T05:31:40.027Z,89.83
2019-04-21T05:32:18.438Z,90.05
2019-04-21T05:33:20.492Z,87.72
2019-04-21T05:34:04.773Z,88.75
2019-04-21T05:34:43.107Z,89.97
2019-04-21T05:35:43.883Z,89.10
2019-04-21T05:36:28.971Z,88.07
2019-04-21T05:37:36.957Z,88.03
2019-04-21T05:38:21.863Z,87.67
2019-04-21T05:39:07.498Z,86.25
2019-04-21T05:39:56.994Z,88.07
2019-04-21T05:40:33.524Z,84.65
2019-04-21T05:41:05.105Z,85.72
2019-04-21T05:41:36.256Z,85.97
2019-04-21T05:42:10.614Z,85.05
2019-04-21T05:42:55.407Z,83.37
2019-04-21T05:43:32.773Z,83.20
2019-04-21T05:44:09.854Z,82.40
2019-04-21T05:44:59.929Z,82.27
2019-04-21T05:45:25.452Z,80.97
2019-04-21T05:46:02.615Z,82.30
2019-04-21T05:46:35.571Z,80.62
2019-04-21T05:47:17.216Z,80.72
2019-04-21T05:48:25.126Z,79.75
2019-04-21T05:48:52.558Z,79.40
2019-04-21T05:49:33.814Z,77.65
2019-04-21T05:50:13.009Z,76.92
2019-04-21T05:50:47.927Z,78.92
2019-04-21T05:51:20.265Z,78.72
2019-04-21T05:51:55.755Z,79.27
2019-04-21T05:52:47.642Z,78.62
2019-04-21T05:53:34.385Z,78.12
2019-04-21T05:54:10.563Z,79.03
2019-04-21T05:54:44.230Z,77.00
2019-04-21T05:55:16.720Z,76.80
2019-04-21T05:55:49.175Z,74.90
2019-04-21T05:56:24.055Z,77.32
2019-04-21T05:56:55.535Z,76.62
2019-04-21T05:57:28.892Z,77.22
2019-04-21T05:58:08.637Z,75.70
2019-04-21T05:58:43.979Z,75.95
2019-04-21T05:59:13.721Z,76.12
2019-04-21T05:59:51.483Z,75.15
2019-04-21T06:00:48.087Z,76.35
2019-04-21T06:01:31.508Z,74.62
2019-04-21T06:02:09.353Z,74.65
2019-04-21T06:03:01.651Z,75.17
2019-04-21T06:03:34.057Z,75.57
2019-04-21T06:04:07.528Z,73.25
2019-04-21T06:05:02.052Z,74.00
2019-04-21T06:05:20.826Z,73.80
2019-04-21T06:06:26.227Z,74.85
2019-04-21T06:07:09.713Z,72.32
2019-04-21T06:07:34.824Z,74.75
2019-04-21T06:08:13.194Z,73.42
2019-04-21T06:08:42.608Z,72.62
2019-04-21T06:09:33.584Z,72.35
2019-04-21T06:10:02.788Z,73.55
2019-04-21T06:10:34.933Z,72.92
2019-04-21T06:11:13.115Z,73.67
2019-04-21T06:11:42.373Z,73.45
2019-04-21T06:12:23.783Z,72.53
2019-04-21T06:13:00.600Z,73.20
2019-04-21T06:13:35.076Z,72.42
2019-04-21T06:14:10.339Z,72.62
2019-04-21T06:14:43.984Z,72.20
2019-04-21T06:15:14.120Z,71.05
2019-04-21T06:16:28.614Z,72.15
2019-04-21T06:17:01.581Z,70.85
2019-04-21T06:18:11.694Z,73.28
2019-04-21T06:18:53.139Z,72.53
2019-04-21T06:19:33.441Z,71.85
2019-04-21T06:20:12.578Z,71.30
2019-04-21T06:20:35.475Z,71.35
2019-04-21T06:21:25.216Z,73.00
2019-04-21T06:21:44.901Z,72.15
2019-04-21T06:22:14.802Z,72.95
2019-04-21T06:23:00.790Z,73.95
2019-04-21T06:23:31.149Z,71.60
2019-04-21T06:24:04.002Z,71.65
2019-04-21T06:24:43.768Z,72.10
2019-04-21T06:25:41.591Z,71.15
2019-04-21T06:27:34.203Z,72.17
2019-04-21T06:28:13.787Z,72.53
2019-04-21T06:28:47.002Z,72.35
2019-04-21T06:29:22.382Z,71.92
2019-04-21T06:29:55.833Z,72.45
2019-04-21T06:30:33.223Z,71.40
2019-04-21T06:32:49.217Z,72.22
2019-04-21T06:33:30.653Z,71.25
2019-04-21T06:33:58.861Z,71.37
2019-04-21T06:34:49.573Z,70.57
2019-04-21T06:35:39.917Z,69.32
2019-04-21T06:36:23.994Z,70.45
2019-04-21T06:36:57.341Z,70.70
2019-04-21T06:38:13.532Z,70.12
2019-04-21T06:39:06.479Z,70.52
2019-04-21T06:39:48.358Z,70.30
2019-04-21T06:40:21.115Z,70.12
2019-04-21T06:40:51.225Z,72.78
2019-04-21T06:41:29.704Z,70.60
2019-04-21T06:41:53.062Z,71.45
2019-04-21T06:42:28.381Z,70.35
2019-04-21T06:43:17.969Z,70.37
2019-04-21T06:43:48.438Z,70.62
2019-04-21T06:44:16.651Z,70.55
2019-04-21T06:45:58.926Z,70.30
2019-04-21T06:46:39.301Z,68.35
2019-04-21T06:47:17.683Z,69.97
2019-04-21T06:47:49.943Z,69.27
2019-04-21T06:48:30.195Z,71.05
2019-04-21T06:48:59.512Z,70.37
2019-04-21T06:49:31.424Z,70.32
2019-04-21T06:50:12.007Z,70.10
2019-04-21T06:50:48.800Z,69.77
2019-04-21T06:51:23.910Z,71.00
2019-04-21T06:51:54.521Z,70.83
2019-04-21T06:53:16.505Z,70.95
2019-04-21T06:53:44.373Z,70.05
2019-04-21T06:54:19.596Z,71.10
2019-04-21T06:55:00.735Z,68.22
2019-04-21T06:55:26.645Z,71.53
2019-04-21T06:56:05.011Z,69.67
2019-04-21T06:56:42.334Z,68.07
2019-04-21T06:57:08.678Z,70.40
2019-04-21T06:57:49.937Z,71.28
2019-04-21T06:58:22.746Z,70.17
2019-04-21T06:58:57.926Z,71.28
2019-04-21T06:59:31.912Z,69.67
2019-04-21T07:00:06.420Z,69.87
2019-04-21T07:00:41.066Z,69.67
2019-04-21T07:01:21.645Z,69.85
2019-04-21T07:02:13.217Z,71.57
2019-04-21T07:03:08.451Z,68.83
2019-04-21T07:03:40.476Z,70.10
2019-04-21T07:04:18.869Z,69.67
2019-04-21T07:04:50.162Z,71.05
2019-04-21T07:05:26.247Z,68.83
2019-04-21T07:06:07.004Z,68.40
2019-04-21T07:06:38.635Z,68.37
2019-04-21T07:07:05.098Z,66.82
2019-04-21T07:07:43.691Z,67.78
2019-04-21T07:08:28.783Z,69.03
2019-04-21T07:09:02.502Z,68.52
2019-04-21T07:09:48.278Z,70.03
2019-04-21T07:10:12.272Z,70.37
2019-04-21T07:10:37.098Z,70.12
2019-04-21T07:11:14.769Z,68.67
2019-04-21T07:11:52.848Z,69.45
2019-04-21T07:12:23.145Z,69.77
2019-04-21T07:12:59.260Z,68.15
2019-04-21T07:13:34.651Z,67.37
2019-04-21T07:14:27.220Z,69.20
2019-04-21T07:14:49.932Z,68.28
2019-04-21T07:15:25.299Z,68.78
2019-04-21T07:16:02.570Z,69.40
2019-04-21T07:16:32.155Z,67.70
2019-04-21T07:17:15.823Z,69.37
2019-04-21T07:17:40.284Z,68.42
2019-04-21T07:18:21.494Z,68.95
2019-04-21T07:19:03.977Z,68.47
2019-04-21T07:19:34.716Z,68.22
2019-04-21T07:20:07.163Z,69.37
2019-04-21T07:20:38.011Z,68.15
2019-04-21T07:21:12.826Z,68.30
2019-04-21T07:22:07.434Z,68.52
2019-04-21T07:22:24.610Z,69.53
2019-04-21T07:23:05.803Z,68.80
2019-04-21T07:23:39.816Z,68.10
2019-04-21T07:24:13.843Z,69.47
2019-04-21T07:24:42.998Z,70.32
2019-04-21T07:25:22.554Z,68.92
2019-04-21T07:25:53.437Z,68.83
2019-04-21T07:26:30.658Z,70.32
2019-04-21T07:27:04.375Z,69.70
2019-04-21T07:27:42.296Z,69.65
2019-04-21T07:28:10.558Z,68.75
2019-04-21T07:28:56.257Z,64.67
2019-04-21T07:29:29.099Z,67.67
2019-04-21T07:30:37.096Z,67.42
2019-04-21T07:31:17.827Z,68.90
2019-04-21T07:32:20.790Z,69.37
2019-04-21T07:33:07.185Z,67.72
2019-04-21T07:33:52.403Z,69.97
2019-04-21T07:34:07.844Z,69.47
2019-04-21T07:34:37.919Z,70.05
2019-04-21T07:35:19.480Z,69.80
2019-04-21T07:35:50.607Z,69.22
2019-04-21T07:36:39.804Z,71.02
2019-04-21T07:37:00.985Z,69.25
2019-04-21T07:37:35.374Z,69.58
2019-04-21T07:38:09.965Z,70.03
2019-04-21T07:38:45.679Z,70.05
2019-04-21T07:39:18.099Z,70.75
2019-04-21T07:39:54.959Z,70.37
2019-04-21T07:40:29.210Z,68.92
2019-04-21T07:41:06.240Z,67.95
2019-04-21T07:41:38.553Z,70.20
2019-04-21T07:42:13.201Z,69.67
2019-04-21T07:42:51.443Z,67.97
2019-04-21T07:43:26.004Z,69.50
2019-04-21T07:44:00.226Z,69.95
2019-04-21T07:44:36.527Z,69.72
2019-04-21T07:45:09.079Z,70.95
2019-04-21T07:45:45.864Z,70.08
2019-04-21T07:46:17.307Z,69.27
2019-04-21T07:46:49.484Z,69.05
2019-04-21T07:47:44.812Z,69.03
2019-04-21T07:48:28.377Z,69.35
2019-04-21T07:49:07.914Z,68.17
2019-04-21T07:50:22.728Z,66.37
2019-04-21T07:51:04.827Z,70.00
2019-04-21T07:52:05.658Z,67.87
2019-04-21T07:52:53.244Z,69.10
2019-04-21T07:53:35.670Z,67.85
2019-04-21T07:54:13.964Z,69.65
2019-04-21T07:54:45.751Z,67.70
2019-04-21T07:55:34.228Z,70.12
2019-04-21T07:56:19.087Z,68.92
2019-04-21T07:56:56.061Z,68.85
2019-04-21T07:57:39.426Z,69.07
2019-04-21T07:58:17.717Z,68.70
2019-04-21T07:58:56.276Z,68.60
2019-04-21T07:59:41.121Z,69.85
2019-04-21T08:01:12.444Z,68.40
2019-04-21T08:01:53.516Z,69.55
2019-04-21T08:02:27.470Z,70.42
2019-04-21T08:03:05.131Z,70.17
2019-04-21T08:03:33.584Z,69.20
2019-04-21T08:04:33.235Z,68.42
2019-04-21T08:04:54.421Z,67.42
2019-04-21T08:05:20.557Z,66.80
2019-04-21T08:05:59.415Z,67.67
2019-04-21T08:06:33.636Z,66.67
2019-04-21T08:07:11.749Z,65.25
2019-04-21T08:07:48.023Z,67.12
2019-04-21T08:08:14.327Z,66.90
2019-04-21T08:08:49.045Z,67.42
2019-04-21T08:09:26.081Z,67.62
2019-04-21T08:10:01.584Z,67.22
2019-04-21T08:10:36.300Z,66.57
2019-04-21T08:11:12.240Z,67.12
2019-04-21T08:11:41.665Z,68.47
2019-04-21T08:12:16.028Z,67.50
2019-04-21T08:12:55.635Z,66.97
2019-04-21T08:13:39.476Z,68.67
2019-04-21T08:14:13.924Z,68.45
2019-04-21T08:14:43.506Z,68.12
2019-04-21T08:15:20.707Z,67.00
2019-04-21T08:15:52.927Z,67.55
2019-04-21T08:16:28.483Z,68.22
2019-04-21T08:17:04.924Z,67.90
2019-04-21T08:17:36.632Z,68.47
2019-04-21T08:18:12.936Z,67.42
2019-04-21T08:18:45.514Z,68.30
2019-04-21T08:19:21.882Z,68.70
2019-04-21T08:19:53.686Z,68.67
2019-04-21T08:20:31.342Z,68.40
2019-04-21T08:21:07.231Z,67.80
2019-04-21T08:21:43.035Z,68.30
2019-04-21T08:22:17.322Z,68.42
2019-04-21T08:22:51.726Z,69.82
2019-04-21T08:23:25.674Z,68.02
2019-04-21T08:24:04.122Z,69.07
2019-04-21T08:24:42.580Z,68.87
2019-04-21T08:25:16.525Z,67.85
2019-04-21T08:26:29.231Z,68.05
2019-04-21T08:27:07.902Z,67.12
2019-04-21T08:27:37.327Z,68.92
2019-04-21T08:28:04.987Z,67.62
2019-04-21T08:28:49.363Z,67.40
2019-04-21T08:29:25.711Z,66.45
2019-04-21T08:29:51.849Z,67.25
2019-04-21T08:30:32.311Z,67.47
2019-04-21T08:31:07.987Z,67.58
2019-04-21T08:31:50.034Z,67.30
2019-04-21T08:32:15.815Z,66.67
2019-04-21T08:33:37.187Z,66.53
2019-04-21T08:34:01.987Z,67.90
2019-04-21T08:34:37.426Z,67.20
2019-04-21T08:36:12.998Z,67.58
2019-04-21T08:36:24.736Z,66.90
2019-04-21T08:36:51.094Z,66.40
2019-04-21T08:37:32.863Z,67.53
2019-04-21T08:38:03.545Z,68.05
2019-04-21T08:38:41.717Z,68.47
2019-04-21T08:39:14.054Z,69.12
2019-04-21T08:39:58.037Z,67.70
2019-04-21T08:40:33.206Z,68.72
2019-04-21T08:41:08.158Z,67.27
2019-04-21T08:41:39.450Z,67.55
2019-04-21T08:42:15.465Z,66.90
2019-04-21T08:42:46.632Z,67.72
2019-04-21T08:43:27.515Z,66.82
2019-04-21T08:43:55.998Z,67.85
2019-04-21T08:44:40.100Z,67.05
2019-04-21T08:45:07.663Z,67.87
2019-04-21T08:45:45.352Z,67.05
2019-04-21T08:46:22.690Z,66.62
2019-04-21T08:46:55.156Z,65.65
2019-04-21T08:47:28.487Z,65.55
2019-04-21T08:48:04.584Z,66.85
2019-04-21T08:48:35.163Z,65.37
2019-04-21T08:49:15.884Z,66.57
2019-04-21T08:49:47.493Z,66.02
2019-04-21T08:50:25.630Z,64.95
2019-04-21T08:51:13.991Z,63.60
2019-04-21T08:51:33.409Z,64.20
2019-04-21T08:52:11.740Z,62.70
2019-04-21T08:52:50.996Z,63.10
2019-04-21T08:53:19.702Z,63.65
2019-04-21T08:53:53.569Z,64.35
2019-04-21T08:54:30.392Z,63.30
2019-04-21T08:55:21.933Z,64.87
2019-04-21T08:57:05.496Z,64.05
2019-04-21T08:58:09.390Z,63.40